sensor_id;sensor_type;location;lat;lon;timestamp;pressure;altitude;pressure_sealevel;temperature;humidity
60319;BME280;46163;52.306;5.634;2023-03-04T00:00:36;102523.31;;;16.19;50.26
60319;BME280;46163;52.306;5.634;2023-03-04T00:03:07;102520.81;;;16.17;50.14
60319;BME280;46163;52.306;5.634;2023-03-04T00:05:35;102513.97;;;16.15;50.27
60319;BME280;46163;52.306;5.634;2023-03-04T00:08:01;102516.66;;;16.15;49.98
60319;BME280;46163;52.306;5.634;2023-03-04T00:10:26;102513.34;;;16.13;50.18
60319;BME280;46163;52.306;5.634;2023-03-04T00:12:51;102512.50;;;16.12;50.10
60319;BME280;46163;52.306;5.634;2023-03-04T00:15:17;102518.06;;;16.10;50.16
60319;BME280;46163;52.306;5.634;2023-03-04T00:17:42;102512.91;;;16.09;49.87
60319;BME280;46163;52.306;5.634;2023-03-04T00:20:10;102518.47;;;16.07;49.86
60319;BME280;46163;52.306;5.634;2023-03-04T00:22:36;102520.31;;;16.07;49.96
60319;BME280;46163;52.306;5.634;2023-03-04T00:25:02;102515.13;;;16.05;49.97
60319;BME280;46163;52.306;5.634;2023-03-04T00:27:28;102509.97;;;16.04;50.06
60319;BME280;46163;52.306;5.634;2023-03-04T00:29:54;102489.81;;;15.87;50.12
60319;BME280;46163;52.306;5.634;2023-03-04T00:32:20;102509.53;;;16.00;49.93
60319;BME280;46163;52.306;5.634;2023-03-04T00:34:46;102512.22;;;16.00;50.07
60319;BME280;46163;52.306;5.634;2023-03-04T00:37:11;102509.75;;;15.99;50.01
60319;BME280;46163;52.306;5.634;2023-03-04T00:39:37;102509.91;;;15.97;49.55
60319;BME280;46163;52.306;5.634;2023-03-04T00:42:03;102507.22;;;15.97;49.95
60319;BME280;46163;52.306;5.634;2023-03-04T00:44:28;102511.97;;;15.95;49.98
60319;BME280;46163;52.306;5.634;2023-03-04T00:46:53;102516.72;;;15.93;49.69
60319;BME280;46163;52.306;5.634;2023-03-04T00:49:19;102511.53;;;15.92;49.99
60319;BME280;46163;52.306;5.634;2023-03-04T00:51:44;102508.19;;;15.90;49.82
60319;BME280;46163;52.306;5.634;2023-03-04T00:54:10;102509.22;;;15.89;49.99
60319;BME280;46163;52.306;5.634;2023-03-04T00:56:35;102511.91;;;15.89;50.03
60319;BME280;46163;52.306;5.634;2023-03-04T00:59:01;102512.94;;;15.88;49.69
60319;BME280;46163;52.306;5.634;2023-03-04T01:01:26;102509.44;;;15.87;49.97
60319;BME280;46163;52.306;5.634;2023-03-04T01:03:52;102520.38;;;15.86;49.83
60319;BME280;46163;52.306;5.634;2023-03-04T01:06:17;102507.16;;;15.84;49.84
60319;BME280;46163;52.306;5.634;2023-03-04T01:08:43;102521.59;;;15.83;49.84
60319;BME280;46163;52.306;5.634;2023-03-04T01:11:09;102511.06;;;15.81;49.83
60319;BME280;46163;52.306;5.634;2023-03-04T01:13:35;102512.88;;;15.81;49.67
60319;BME280;46163;52.306;5.634;2023-03-04T01:16:00;102514.75;;;15.80;49.90
60319;BME280;46163;52.306;5.634;2023-03-04T01:18:27;102498.16;;;15.70;49.82
60319;BME280;46163;52.306;5.634;2023-03-04T01:20:53;102522.16;;;15.78;49.70
60319;BME280;46163;52.306;5.634;2023-03-04T01:23:19;102515.16;;;15.77;49.76
60319;BME280;46163;52.306;5.634;2023-03-04T01:25:44;102509.97;;;15.76;49.71
60319;BME280;46163;52.306;5.634;2023-03-04T01:28:10;102504.59;;;15.76;49.71
60319;BME280;46163;52.306;5.634;2023-03-04T01:30:36;102494.91;;;15.75;49.66
60319;BME280;46163;52.306;5.634;2023-03-04T01:33:02;102497.78;;;15.73;49.66
60319;BME280;46163;52.306;5.634;2023-03-04T01:35:28;102491.75;;;15.71;49.71
60319;BME280;46163;52.306;5.634;2023-03-04T01:37:53;102483.69;;;15.71;49.77
60319;BME280;46163;52.306;5.634;2023-03-04T01:40:19;102497.13;;;15.71;49.68
60319;BME280;46163;52.306;5.634;2023-03-04T01:42:45;102486.59;;;15.70;49.67
60319;BME280;46163;52.306;5.634;2023-03-04T01:45:15;102494.22;;;15.66;49.59
60319;BME280;46163;52.306;5.634;2023-03-04T01:47:47;102489.47;;;15.68;49.81
60319;BME280;46163;52.306;5.634;2023-03-04T01:50:36;102491.53;;;15.66;49.67
60319;BME280;46163;52.306;5.634;2023-03-04T01:53:02;102492.56;;;15.65;49.46
60319;BME280;46163;52.306;5.634;2023-03-04T01:55:29;102485.53;;;15.64;49.65
60319;BME280;46163;52.306;5.634;2023-03-04T01:57:54;102475.78;;;15.63;49.60
60319;BME280;46163;52.306;5.634;2023-03-04T02:00:32;102469.78;;;15.61;49.66
60319;BME280;46163;52.306;5.634;2023-03-04T02:03:01;102469.78;;;15.61;49.58
60319;BME280;46163;52.306;5.634;2023-03-04T02:05:29;102467.28;;;15.60;49.65
60319;BME280;46163;52.306;5.634;2023-03-04T02:07:56;102459.44;;;15.58;49.53
60319;BME280;46163;52.306;5.634;2023-03-04T02:10:22;102463.75;;;15.59;49.52
60319;BME280;46163;52.306;5.634;2023-03-04T02:12:48;102457.75;;;15.57;49.81
60319;BME280;46163;52.306;5.634;2023-03-04T02:15:15;102463.13;;;15.57;49.93
60319;BME280;46163;52.306;5.634;2023-03-04T02:17:40;102460.44;;;15.57;49.64
60319;BME280;46163;52.306;5.634;2023-03-04T02:20:18;102451.13;;;15.53;49.71
60319;BME280;46163;52.306;5.634;2023-03-04T02:22:55;102457.13;;;15.55;49.37
60319;BME280;46163;52.306;5.634;2023-03-04T02:25:36;102458.13;;;15.54;49.49
60319;BME280;46163;52.306;5.634;2023-03-04T02:28:03;102452.78;;;15.54;49.44
60319;BME280;46163;52.306;5.634;2023-03-04T02:30:29;102447.59;;;15.52;49.53
60319;BME280;46163;52.306;5.634;2023-03-04T02:32:55;102444.28;;;15.50;49.54
60319;BME280;46163;52.306;5.634;2023-03-04T02:35:21;102445.13;;;15.51;49.50
60319;BME280;46163;52.306;5.634;2023-03-04T02:37:49;102434.59;;;15.49;49.25
60319;BME280;46163;52.306;5.634;2023-03-04T02:40:33;102440.16;;;15.48;49.29
60319;BME280;46163;52.306;5.634;2023-03-04T02:43:00;102438.50;;;15.47;49.45
60319;BME280;46163;52.306;5.634;2023-03-04T02:45:33;102441.19;;;15.47;49.56
60319;BME280;46163;52.306;5.634;2023-03-04T02:48:00;102435.81;;;15.47;49.33
60319;BME280;46163;52.306;5.634;2023-03-04T02:50:28;102434.13;;;15.46;49.47
60319;BME280;46163;52.306;5.634;2023-03-04T02:52:54;102431.66;;;15.44;49.50
60319;BME280;46163;52.306;5.634;2023-03-04T02:55:19;102425.44;;;15.44;49.52
60319;BME280;46163;52.306;5.634;2023-03-04T02:57:45;102421.31;;;15.41;49.27
60319;BME280;46163;52.306;5.634;2023-03-04T03:00:11;102419.47;;;15.42;49.17
60319;BME280;46163;52.306;5.634;2023-03-04T03:02:37;102420.47;;;15.41;49.40
60319;BME280;46163;52.306;5.634;2023-03-04T03:05:02;102415.31;;;15.39;49.49
60319;BME280;46163;52.306;5.634;2023-03-04T03:07:28;102413.47;;;15.40;49.40
60319;BME280;46163;52.306;5.634;2023-03-04T03:09:53;102407.28;;;15.39;49.25
60319;BME280;46163;52.306;5.634;2023-03-04T03:12:19;102403.94;;;15.37;49.29
60319;BME280;46163;52.306;5.634;2023-03-04T03:14:44;102407.47;;;15.38;49.33
60319;BME280;46163;52.306;5.634;2023-03-04T03:17:10;102399.59;;;15.36;49.32
60319;BME280;46163;52.306;5.634;2023-03-04T03:19:35;102393.41;;;15.36;49.36
60319;BME280;46163;52.306;5.634;2023-03-04T03:22:01;102403.50;;;15.34;49.25
60319;BME280;46163;52.306;5.634;2023-03-04T03:24:26;102400.81;;;15.34;49.41
60319;BME280;46163;52.306;5.634;2023-03-04T03:26:52;102403.50;;;15.34;49.31
60319;BME280;46163;52.306;5.634;2023-03-04T03:29:17;102392.97;;;15.32;49.32
60319;BME280;46163;52.306;5.634;2023-03-04T03:31:43;102399.16;;;15.33;49.54
60319;BME280;46163;52.306;5.634;2023-03-04T03:34:08;102395.84;;;15.31;49.13
60319;BME280;46163;52.306;5.634;2023-03-04T03:36:34;102395.84;;;15.31;49.18
60319;BME280;46163;52.306;5.634;2023-03-04T03:38:59;102388.81;;;15.30;49.25
60319;BME280;46163;52.306;5.634;2023-03-04T03:41:25;102399.56;;;15.30;49.40
60319;BME280;46163;52.306;5.634;2023-03-04T03:43:51;102397.03;;;15.28;49.27
60319;BME280;46163;52.306;5.634;2023-03-04T03:46:16;102398.06;;;15.27;49.32
60319;BME280;46163;52.306;5.634;2023-03-04T03:48:42;102399.94;;;15.26;49.23
60319;BME280;46163;52.306;5.634;2023-03-04T03:51:07;102394.56;;;15.26;48.99
60319;BME280;46163;52.306;5.634;2023-03-04T03:53:33;102397.63;;;15.23;49.00
60319;BME280;46163;52.306;5.634;2023-03-04T03:55:59;102394.75;;;15.25;49.34
60319;BME280;46163;52.306;5.634;2023-03-04T03:58:24;102390.41;;;15.24;49.10
60319;BME280;46163;52.306;5.634;2023-03-04T04:00:51;102394.13;;;15.23;49.14
60319;BME280;46163;52.306;5.634;2023-03-04T04:03:17;102393.31;;;15.22;49.25
60319;BME280;46163;52.306;5.634;2023-03-04T04:05:43;102386.44;;;15.20;49.14
60319;BME280;46163;52.306;5.634;2023-03-04T04:08:16;102387.31;;;15.20;49.27
60319;BME280;46163;52.306;5.634;2023-03-04T04:10:43;102381.94;;;15.20;49.19
60319;BME280;46163;52.306;5.634;2023-03-04T04:13:09;102382.94;;;15.19;49.38
60319;BME280;46163;52.306;5.634;2023-03-04T04:15:35;102391.81;;;15.20;49.47
60319;BME280;46163;52.306;5.634;2023-03-04T04:18:03;102382.94;;;15.19;49.20
60319;BME280;46163;52.306;5.634;2023-03-04T04:20:30;102387.31;;;15.20;49.32
60319;BME280;46163;52.306;5.634;2023-03-04T04:22:55;102391.66;;;15.21;49.19
60319;BME280;46163;52.306;5.634;2023-03-04T04:25:21;102386.91;;;15.23;49.21
60319;BME280;46163;52.306;5.634;2023-03-04T04:27:47;102394.75;;;15.25;49.36
60319;BME280;46163;52.306;5.634;2023-03-04T04:30:12;102393.38;;;15.29;49.26
60319;BME280;46163;52.306;5.634;2023-03-04T04:32:38;102384.72;;;15.34;49.04
60319;BME280;46163;52.306;5.634;2023-03-04T04:35:04;102397.38;;;15.40;49.03
60319;BME280;46163;52.306;5.634;2023-03-04T04:37:29;102397.44;;;15.46;48.90
60319;BME280;46163;52.306;5.634;2023-03-04T04:39:55;102395.41;;;15.55;48.85
60319;BME280;46163;52.306;5.634;2023-03-04T04:42:21;102395.53;;;15.68;48.34
60319;BME280;46163;52.306;5.634;2023-03-04T04:44:47;102394.34;;;15.77;48.05
60319;BME280;46163;52.306;5.634;2023-03-04T04:47:12;102396.88;;;15.86;48.12
60319;BME280;46163;52.306;5.634;2023-03-04T04:49:37;102399.19;;;15.95;47.88
60319;BME280;46163;52.306;5.634;2023-03-04T04:52:03;102395.31;;;16.04;47.68
60319;BME280;46163;52.306;5.634;2023-03-04T04:54:29;102390.81;;;16.11;47.46
60319;BME280;46163;52.306;5.634;2023-03-04T04:56:54;102393.13;;;16.21;47.27
60319;BME280;46163;52.306;5.634;2023-03-04T04:59:20;102388.63;;;16.28;47.32
60319;BME280;46163;52.306;5.634;2023-03-04T05:01:46;102394.44;;;16.38;46.87
60319;BME280;46163;52.306;5.634;2023-03-04T05:04:11;102393.66;;;16.45;46.66
60319;BME280;46163;52.306;5.634;2023-03-04T05:06:37;102395.31;;;16.52;46.45
60319;BME280;46163;52.306;5.634;2023-03-04T05:09:02;102385.44;;;16.59;46.44
60319;BME280;46163;52.306;5.634;2023-03-04T05:11:29;102391.63;;;16.66;46.25
60319;BME280;46163;52.306;5.634;2023-03-04T05:13:54;102390.03;;;16.72;46.21
60319;BME280;46163;52.306;5.634;2023-03-04T05:16:20;102385.06;;;16.76;46.20
60319;BME280;46163;52.306;5.634;2023-03-04T05:18:46;102384.25;;;16.82;46.06
60319;BME280;46163;52.306;5.634;2023-03-04T05:21:11;102378.88;;;16.88;45.90
60319;BME280;46163;52.306;5.634;2023-03-04T05:23:42;102380.53;;;16.89;45.60
60319;BME280;46163;52.306;5.634;2023-03-04T05:26:09;102373.91;;;16.92;45.84
60319;BME280;46163;52.306;5.634;2023-03-04T05:28:35;102380.97;;;17.00;45.68
60319;BME280;46163;52.306;5.634;2023-03-04T05:31:01;102376.84;;;17.04;45.69
60319;BME280;46163;52.306;5.634;2023-03-04T05:33:27;102385.09;;;17.09;45.42
60319;BME280;46163;52.306;5.634;2023-03-04T05:35:53;102383.25;;;17.09;45.44
60319;BME280;46163;52.306;5.634;2023-03-04T05:38:19;102376.22;;;17.15;45.51
60319;BME280;46163;52.306;5.634;2023-03-04T05:40:46;102390.72;;;17.20;45.25
60319;BME280;46163;52.306;5.634;2023-03-04T05:43:12;102390.91;;;17.26;45.25
60319;BME280;46163;52.306;5.634;2023-03-04T05:45:38;102386.34;;;17.26;45.23
60319;BME280;46163;52.306;5.634;2023-03-04T05:48:04;102397.13;;;17.33;45.08
60319;BME280;46163;52.306;5.634;2023-03-04T05:50:30;102393.78;;;17.37;45.01
60319;BME280;46163;52.306;5.634;2023-03-04T05:52:55;102394.00;;;17.42;45.00
60319;BME280;46163;52.306;5.634;2023-03-04T05:55:21;102395.03;;;17.48;44.97
60319;BME280;46163;52.306;5.634;2023-03-04T05:57:47;102401.66;;;17.52;44.82
60319;BME280;46163;52.306;5.634;2023-03-04T06:00:16;102392.75;;;17.58;44.80
60319;BME280;46163;52.306;5.634;2023-03-04T06:02:43;102394.78;;;17.63;44.62
60319;BME280;46163;52.306;5.634;2023-03-04T06:05:10;102385.28;;;17.67;44.42
60319;BME280;46163;52.306;5.634;2023-03-04T06:07:36;102389.22;;;17.71;44.56
60319;BME280;46163;52.306;5.634;2023-03-04T06:10:02;102381.16;;;17.71;44.32
60319;BME280;46163;52.306;5.634;2023-03-04T06:12:28;102385.91;;;17.75;44.56
60319;BME280;46163;52.306;5.634;2023-03-04T06:14:54;102389.63;;;17.81;44.43
60319;BME280;46163;52.306;5.634;2023-03-04T06:17:20;102392.94;;;17.83;44.31
60319;BME280;46163;52.306;5.634;2023-03-04T06:19:45;102387.13;;;17.86;44.26
60319;BME280;46163;52.306;5.634;2023-03-04T06:22:11;102385.03;;;17.88;44.36
60319;BME280;46163;52.306;5.634;2023-03-04T06:24:36;102383.00;;;17.90;43.88
60319;BME280;46163;52.306;5.634;2023-03-04T06:27:02;102387.31;;;17.91;44.31
60319;BME280;46163;52.306;5.634;2023-03-04T06:29:28;102397.66;;;17.94;44.12
60319;BME280;46163;52.306;5.634;2023-03-04T06:31:53;102400.38;;;17.94;44.10
60319;BME280;46163;52.306;5.634;2023-03-04T06:34:19;102403.66;;;17.96;43.92
60319;BME280;46163;52.306;5.634;2023-03-04T06:36:44;102400.75;;;17.98;44.14
60319;BME280;46163;52.306;5.634;2023-03-04T06:39:10;102394.13;;;18.00;44.05
60319;BME280;46163;52.306;5.634;2023-03-04T06:41:35;102390.63;;;18.00;43.92
60319;BME280;46163;52.306;5.634;2023-03-04T06:44:01;102406.34;;;18.03;43.82
60319;BME280;46163;52.306;5.634;2023-03-04T06:46:26;102398.88;;;18.05;43.68
60319;BME280;46163;52.306;5.634;2023-03-04T06:48:52;102401.78;;;18.03;43.90
60319;BME280;46163;52.306;5.634;2023-03-04T06:51:19;102402.38;;;18.05;43.75
60319;BME280;46163;52.306;5.634;2023-03-04T06:53:44;102403.03;;;18.07;44.11
60319;BME280;46163;52.306;5.634;2023-03-04T06:56:11;102402.81;;;18.09;44.01
60319;BME280;46163;52.306;5.634;2023-03-04T06:58:37;102403.41;;;18.11;43.59
60319;BME280;46163;52.306;5.634;2023-03-04T07:01:29;102404.03;;;18.13;43.83
60319;BME280;46163;52.306;5.634;2023-03-04T07:03:55;102398.84;;;18.12;43.71
60319;BME280;46163;52.306;5.634;2023-03-04T07:06:26;102399.47;;;18.14;43.80
60319;BME280;46163;52.306;5.634;2023-03-04T07:08:52;102400.72;;;18.18;43.71
60319;BME280;46163;52.306;5.634;2023-03-04T07:11:20;102400.72;;;18.18;43.86
60319;BME280;46163;52.306;5.634;2023-03-04T07:13:46;102407.75;;;18.19;43.86
60319;BME280;46163;52.306;5.634;2023-03-04T07:16:15;102412.31;;;18.18;43.75
60319;BME280;46163;52.306;5.634;2023-03-04T07:18:42;102400.94;;;18.10;44.01
60319;BME280;46163;52.306;5.634;2023-03-04T07:21:08;102408.78;;;18.18;44.05
60319;BME280;46163;52.306;5.634;2023-03-04T07:23:37;102408.59;;;18.13;43.92
60319;BME280;46163;52.306;5.634;2023-03-04T07:26:03;102411.72;;;18.16;43.87
60319;BME280;46163;52.306;5.634;2023-03-04T07:28:29;102413.34;;;18.17;44.21
60319;BME280;46163;52.306;5.634;2023-03-04T07:30:55;102411.50;;;18.18;44.13
60319;BME280;46163;52.306;5.634;2023-03-04T07:33:20;102416.44;;;18.21;44.28
60319;BME280;46163;52.306;5.634;2023-03-04T07:35:45;102416.22;;;18.22;44.06
60319;BME280;46163;52.306;5.634;2023-03-04T07:38:11;102410.00;;;18.22;44.08
60319;BME280;46163;52.306;5.634;2023-03-04T07:40:39;102415.19;;;18.23;44.23
60319;BME280;46163;52.306;5.634;2023-03-04T07:43:06;102412.28;;;18.25;44.50
60319;BME280;46163;52.306;5.634;2023-03-04T07:45:32;102412.91;;;18.27;44.40
60319;BME280;46163;52.306;5.634;2023-03-04T07:47:57;102404.38;;;18.30;44.50
60319;BME280;46163;52.306;5.634;2023-03-04T07:50:24;102412.25;;;18.31;44.32
60319;BME280;46163;52.306;5.634;2023-03-04T07:52:49;102413.06;;;18.32;44.53
60319;BME280;46163;52.306;5.634;2023-03-04T07:55:19;102415.56;;;18.33;44.81
60319;BME280;46163;52.306;5.634;2023-03-04T07:57:46;102413.72;;;18.34;44.66
60319;BME280;46163;52.306;5.634;2023-03-04T08:00:15;102412.66;;;18.35;44.42
60319;BME280;46163;52.306;5.634;2023-03-04T08:02:41;102426.75;;;18.37;44.58
60319;BME280;46163;52.306;5.634;2023-03-04T08:05:07;102427.56;;;18.38;44.42
60319;BME280;46163;52.306;5.634;2023-03-04T08:07:33;102419.25;;;18.39;44.38
60319;BME280;46163;52.306;5.634;2023-03-04T08:09:59;102426.31;;;18.40;44.50
60319;BME280;46163;52.306;5.634;2023-03-04T08:12:25;102425.91;;;18.36;44.44
60319;BME280;46163;52.306;5.634;2023-03-04T08:14:50;102430.66;;;18.41;44.40
60319;BME280;46163;52.306;5.634;2023-03-04T08:17:16;102432.53;;;18.41;44.71
60319;BME280;46163;52.306;5.634;2023-03-04T08:19:42;102435.03;;;18.42;44.84
60319;BME280;46163;52.306;5.634;2023-03-04T08:22:07;102439.56;;;18.42;44.53
60319;BME280;46163;52.306;5.634;2023-03-04T08:24:33;102430.88;;;18.40;44.44
60319;BME280;46163;52.306;5.634;2023-03-04T08:26:58;102422.19;;;18.38;44.64
60319;BME280;46163;52.306;5.634;2023-03-04T08:29:24;102426.53;;;18.32;44.61
60319;BME280;46163;52.306;5.634;2023-03-04T08:31:50;102444.13;;;18.41;44.62
60319;BME280;46163;52.306;5.634;2023-03-04T08:34:18;102440.81;;;18.39;44.39
60319;BME280;46163;52.306;5.634;2023-03-04T08:36:44;102436.25;;;18.40;44.45
60319;BME280;46163;52.306;5.634;2023-03-04T08:39:14;102444.34;;;18.40;44.42
60319;BME280;46163;52.306;5.634;2023-03-04T08:41:40;102448.91;;;18.39;44.39
60319;BME280;46163;52.306;5.634;2023-03-04T08:44:06;102442.47;;;18.40;44.25
60319;BME280;46163;52.306;5.634;2023-03-04T08:46:35;102451.63;;;18.39;44.37
60319;BME280;46163;52.306;5.634;2023-03-04T08:49:01;102445.22;;;18.33;44.39
60319;BME280;46163;52.306;5.634;2023-03-04T08:51:26;102443.53;;;18.39;44.10
60319;BME280;46163;52.306;5.634;2023-03-04T08:53:52;102440.00;;;18.39;44.16
60319;BME280;46163;52.306;5.634;2023-03-04T08:56:18;102440.00;;;18.39;44.22
60319;BME280;46163;52.306;5.634;2023-03-04T08:58:43;102433.78;;;18.38;44.44
60319;BME280;46163;52.306;5.634;2023-03-04T09:01:11;102442.47;;;18.40;44.44
60319;BME280;46163;52.306;5.634;2023-03-04T09:03:37;102435.44;;;18.39;44.34
60319;BME280;46163;52.306;5.634;2023-03-04T09:06:04;102435.44;;;18.39;44.37
60319;BME280;46163;52.306;5.634;2023-03-04T09:08:30;102442.47;;;18.40;44.38
60319;BME280;46163;52.306;5.634;2023-03-04T09:10:55;102431.28;;;18.43;44.24
60319;BME280;46163;52.306;5.634;2023-03-04T09:13:22;102433.16;;;18.43;44.31
60319;BME280;46163;52.306;5.634;2023-03-04T09:15:49;102417.59;;;18.45;44.18
60319;BME280;46163;52.306;5.634;2023-03-04T09:18:16;102421.13;;;18.45;44.16
60319;BME280;46163;52.306;5.634;2023-03-04T09:20:42;102422.75;;;18.46;44.02
60319;BME280;46163;52.306;5.634;2023-03-04T09:23:08;102411.78;;;18.41;44.03
60319;BME280;46163;52.306;5.634;2023-03-04T09:25:37;102418.41;;;18.45;44.19
60319;BME280;46163;52.306;5.634;2023-03-04T09:28:02;102429.81;;;18.47;44.05
60319;BME280;46163;52.306;5.634;2023-03-04T09:30:28;102428.16;;;18.46;44.05
60319;BME280;46163;52.306;5.634;2023-03-04T09:32:54;102425.47;;;18.46;43.99
60319;BME280;46163;52.306;5.634;2023-03-04T09:35:19;102428.38;;;18.45;44.07
60319;BME280;46163;52.306;5.634;2023-03-04T09:37:45;102432.50;;;18.47;44.14
60319;BME280;46163;52.306;5.634;2023-03-04T09:40:22;102428.75;;;18.48;43.83
60319;BME280;46163;52.306;5.634;2023-03-04T09:42:51;102427.09;;;18.47;44.21
60319;BME280;46163;52.306;5.634;2023-03-04T09:45:21;102431.47;;;18.48;44.19
60319;BME280;46163;52.306;5.634;2023-03-04T09:47:51;102415.53;;;18.40;44.03
60319;BME280;46163;52.306;5.634;2023-03-04T09:50:19;102426.06;;;18.48;44.12
60319;BME280;46163;52.306;5.634;2023-03-04T09:55:49;102432.50;;;18.47;44.24
60319;BME280;46163;52.306;5.634;2023-03-04T10:01:27;102424.41;;;18.47;44.29
60319;BME280;46163;52.306;5.634;2023-03-04T10:04:19;102416.31;;;18.47;43.98
60319;BME280;46163;52.306;5.634;2023-03-04T10:06:51;102420.06;;;18.46;43.99
60319;BME280;46163;52.306;5.634;2023-03-04T10:09:28;102407.41;;;18.47;43.95
60319;BME280;46163;52.306;5.634;2023-03-04T10:12:06;102406.16;;;18.49;44.11
60319;BME280;46163;52.306;5.634;2023-03-04T10:14:39;102412.59;;;18.48;44.12
60319;BME280;46163;52.306;5.634;2023-03-04T10:17:33;102408.03;;;18.49;44.05
60319;BME280;46163;52.306;5.634;2023-03-04T10:20:15;102410.13;;;18.47;44.02
60319;BME280;46163;52.306;5.634;2023-03-04T10:22:45;102413.41;;;18.49;44.09
60319;BME280;46163;52.306;5.634;2023-03-04T10:25:30;102405.31;;;18.49;44.11
60319;BME280;46163;52.306;5.634;2023-03-04T10:33:22;102402.59;;;18.55;43.97
60319;BME280;46163;52.306;5.634;2023-03-04T10:36:00;102398.03;;;18.56;44.00
60319;BME280;46163;52.306;5.634;2023-03-04T10:38:38;102397.59;;;18.59;44.02
60319;BME280;46163;52.306;5.634;2023-03-04T10:41:24;102396.13;;;18.63;43.75
60319;BME280;46163;52.306;5.634;2023-03-04T10:44:16;102391.56;;;18.63;43.62
60319;BME280;46163;52.306;5.634;2023-03-04T10:46:44;102390.75;;;18.63;43.91
60319;BME280;46163;52.306;5.634;2023-03-04T10:49:10;102391.56;;;18.63;43.91
60319;BME280;46163;52.306;5.634;2023-03-04T10:51:53;102392.59;;;18.62;43.92
60319;BME280;46163;52.306;5.634;2023-03-04T10:54:41;102396.34;;;18.61;43.75
60319;BME280;46163;52.306;5.634;2023-03-04T10:57:22;102399.28;;;18.60;43.96
60319;BME280;46163;52.306;5.634;2023-03-04T11:02:24;102402.97;;;18.59;44.10
60319;BME280;46163;52.306;5.634;2023-03-04T11:07:30;102397.81;;;18.57;44.01
60319;BME280;46163;52.306;5.634;2023-03-04T11:10:07;102391.38;;;18.58;44.28
60319;BME280;46163;52.306;5.634;2023-03-04T11:12:33;102391.81;;;18.55;44.06
60319;BME280;46163;52.306;5.634;2023-03-04T11:15:00;102396.75;;;18.58;44.04
60319;BME280;46163;52.306;5.634;2023-03-04T11:17:28;102389.72;;;18.57;43.99
60319;BME280;46163;52.306;5.634;2023-03-04T11:20:32;102383.28;;;18.58;44.19
60319;BME280;46163;52.306;5.634;2023-03-04T11:23:04;102382.03;;;18.61;44.50
60319;BME280;46163;52.306;5.634;2023-03-04T11:25:34;102383.69;;;18.62;44.13
60319;BME280;46163;52.306;5.634;2023-03-04T11:28:19;102379.72;;;18.64;44.16
60319;BME280;46163;52.306;5.634;2023-03-04T11:31:20;102371.66;;;18.64;44.31
60319;BME280;46163;52.306;5.634;2023-03-04T11:33:54;102378.72;;;18.66;44.14
60319;BME280;46163;52.306;5.634;2023-03-04T11:36:33;102368.34;;;18.62;44.24
60319;BME280;46163;52.306;5.634;2023-03-04T11:39:02;102371.91;;;18.56;44.19
60319;BME280;46163;52.306;5.634;2023-03-04T11:41:38;102375.84;;;18.60;44.18
60319;BME280;46163;52.306;5.634;2023-03-04T11:44:06;102376.09;;;18.52;44.31
60319;BME280;46163;52.306;5.634;2023-03-04T11:55:14;102381.22;;;18.60;44.00
60319;BME280;46163;52.306;5.634;2023-03-04T12:00:30;102381.22;;;18.60;44.13
60319;BME280;46163;52.306;5.634;2023-03-04T12:08:59;102371.47;;;18.59;44.06
60319;BME280;46163;52.306;5.634;2023-03-04T12:11:37;102366.09;;;18.59;44.24
60319;BME280;46163;52.306;5.634;2023-03-04T12:39:17;102348.66;;;18.62;43.95
60319;BME280;46163;52.306;5.634;2023-03-04T12:44:23;102340.78;;;18.60;44.03
60319;BME280;46163;52.306;5.634;2023-03-04T12:50:24;102332.88;;;18.59;43.84
60319;BME280;46163;52.306;5.634;2023-03-04T12:55:43;102331.44;;;18.56;44.11
60319;BME280;46163;52.306;5.634;2023-03-04T12:58:19;102319.50;;;18.46;43.96
60319;BME280;46163;52.306;5.634;2023-03-04T13:03:24;102334.59;;;18.53;43.96
60319;BME280;46163;52.306;5.634;2023-03-04T13:11:39;102323.22;;;18.51;43.92
60319;BME280;46163;52.306;5.634;2023-03-04T13:14:06;102321.34;;;18.52;43.94
60319;BME280;46163;52.306;5.634;2023-03-04T13:16:46;102315.31;;;18.50;43.89
60319;BME280;46163;52.306;5.634;2023-03-04T13:22:28;102306.22;;;18.51;43.91
60319;BME280;46163;52.306;5.634;2023-03-04T13:24:55;102307.03;;;18.51;43.97
60319;BME280;46163;52.306;5.634;2023-03-04T13:27:47;102282.84;;;18.38;43.83
60319;BME280;46163;52.306;5.634;2023-03-04T13:33:38;102293.16;;;18.48;44.15
60319;BME280;46163;52.306;5.634;2023-03-04T13:40:42;102296.25;;;18.51;43.91
60319;BME280;46163;52.306;5.634;2023-03-04T13:43:27;102305.53;;;18.55;43.81
60319;BME280;46163;52.306;5.634;2023-03-04T13:45:53;102300.16;;;18.55;43.84
60319;BME280;46163;52.306;5.634;2023-03-04T13:48:31;102297.00;;;18.58;43.87
60319;BME280;46163;52.306;5.634;2023-03-04T13:51:00;102296.00;;;18.59;43.82
60319;BME280;46163;52.306;5.634;2023-03-04T13:53:36;102298.06;;;18.57;43.67
60319;BME280;46163;52.306;5.634;2023-03-04T13:56:41;102285.19;;;18.59;43.72
60319;BME280;46163;52.306;5.634;2023-03-04T14:01:53;102292.25;;;18.60;43.83
60319;BME280;46163;52.306;5.634;2023-03-04T14:04:27;102282.50;;;18.59;43.60
60319;BME280;46163;52.306;5.634;2023-03-04T14:06:54;102272.31;;;18.61;43.91
60319;BME280;46163;52.306;5.634;2023-03-04T14:09:25;102275.00;;;18.61;43.64
60319;BME280;46163;52.306;5.634;2023-03-04T14:11:57;102269.84;;;18.60;43.67
60319;BME280;46163;52.306;5.634;2023-03-04T14:14:26;102276.25;;;18.59;43.78
60319;BME280;46163;52.306;5.634;2023-03-04T14:17:02;102271.09;;;18.57;43.76
60319;BME280;46163;52.306;5.634;2023-03-04T14:19:42;102270.50;;;18.55;43.84
60319;BME280;46163;52.306;5.634;2023-03-04T14:22:31;102270.50;;;18.55;43.85
60319;BME280;46163;52.306;5.634;2023-03-04T14:27:30;102260.38;;;18.51;43.73
60319;BME280;46163;52.306;5.634;2023-03-04T14:30:03;102267.41;;;18.52;43.79